Time;durP1;ratioP1;P1;durP2;ratioP2;P2;SDS_P1;SDS_P2;PMS_P1;PMS_P2;Temp;Humidity;BMP_temperature;BMP_pressure;BME280_temperature;BME280_humidity;BME280_pressure;Samples;Min_cycle;Max_cycle;Signal;HPM_P1;HPM_P2
2020/12/24 00:01:06;;;;;;;5.88;3.90;;;12.00;66.50;;;;;;5054923;28;20025;-71
2020/12/24 00:03:32;;;;;;;6.75;4.32;;;12.00;66.50;;;;;;5054886;28;20108;-72
2020/12/24 00:05:57;;;;;;;7.63;4.45;;;12.00;66.50;;;;;;5054796;28;20036;-71
2020/12/24 00:08:23;;;;;;;8.30;4.07;;;11.90;66.60;;;;;;5055027;28;20096;-71
2020/12/24 00:10:50;;;;;;;9.55;3.92;;;11.90;66.80;;;;;;5054711;28;20021;-71
2020/12/24 00:13:16;;;;;;;4.78;3.13;;;11.90;67.00;;;;;;5055471;28;20425;-71
2020/12/24 00:15:43;;;;;;;5.15;3.33;;;11.90;67.20;;;;;;5054649;28;20414;-72
2020/12/24 00:18:09;;;;;;;5.93;3.60;;;11.90;67.50;;;;;;5054602;28;20382;-72
2020/12/24 00:20:35;;;;;;;4.50;3.03;;;11.90;67.50;;;;;;5055350;28;20032;-71
2020/12/24 00:23:01;;;;;;;6.53;4.80;;;11.90;67.40;;;;;;5055429;28;20029;-71
2020/12/24 00:25:26;;;;;;;9.07;5.55;;;11.90;67.30;;;;;;5053658;28;20379;-71
2020/12/24 00:27:52;;;;;;;8.93;5.45;;;11.90;67.10;;;;;;5055753;28;20078;-72
2020/12/24 00:30:18;;;;;;;14.73;5.55;;;11.90;67.00;;;;;;5055678;28;20025;-71
2020/12/24 00:32:44;;;;;;;10.95;6.78;;;11.90;66.90;;;;;;5054885;28;20032;-72
2020/12/24 00:35:09;;;;;;;10.15;6.07;;;11.90;66.90;;;;;;5054267;28;20033;-72
2020/12/24 00:37:35;;;;;;;7.60;4.50;;;11.90;67.00;;;;;;5053220;28;20367;-71
2020/12/24 00:40:03;;;;;;;5.47;3.33;;;11.90;67.00;;;;;;5052921;28;20518;-72
2020/12/24 00:42:28;;;;;;;10.35;4.97;;;11.80;66.90;;;;;;5053857;28;20066;-71
2020/12/24 00:44:54;;;;;;;13.45;6.47;;;11.80;66.90;;;;;;5052849;28;20032;-72
2020/12/24 00:47:20;;;;;;;7.75;4.50;;;11.80;66.70;;;;;;5052812;28;20021;-71
2020/12/24 00:49:46;;;;;;;6.65;3.78;;;11.70;66.60;;;;;;5054030;28;20024;-72
2020/12/24 00:52:12;;;;;;;6.25;4.10;;;11.70;66.80;;;;;;5053995;28;20020;-71
2020/12/24 00:54:38;;;;;;;6.43;4.10;;;11.70;67.10;;;;;;5053908;28;20054;-71
2020/12/24 00:57:04;;;;;;;8.63;4.78;;;11.60;67.20;;;;;;5054451;28;20099;-72
2020/12/24 00:59:30;;;;;;;8.38;4.35;;;11.60;67.20;;;;;;5053825;28;20032;-71
2020/12/24 01:01:57;;;;;;;8.45;3.72;;;11.60;67.30;;;;;;5054073;28;20129;-72
2020/12/24 01:04:23;;;;;;;7.60;4.28;;;11.60;67.40;;;;;;5052401;28;20029;-72
2020/12/24 01:06:48;;;;;;;6.43;4.38;;;11.60;67.40;;;;;;5053715;28;20497;-72
2020/12/24 01:09:14;;;;;;;6.25;3.60;;;11.60;67.60;;;;;;5053674;28;20029;-72
2020/12/24 01:11:40;;;;;;;7.80;5.13;;;11.60;67.70;;;;;;5053928;28;20021;-72
2020/12/24 01:14:06;;;;;;;6.78;4.30;;;11.60;68.00;;;;;;5053223;28;20036;-71
2020/12/24 01:16:31;;;;;;;7.53;3.30;;;11.60;68.00;;;;;;5052147;28;20060;-71
2020/12/24 01:18:59;;;;;;;5.60;3.38;;;11.60;67.90;;;;;;5054024;28;20265;-71
2020/12/24 01:21:25;;;;;;;5.68;3.70;;;11.60;67.90;;;;;;5053502;28;20052;-72
2020/12/24 01:23:50;;;;;;;4.43;3.10;;;11.60;67.80;;;;;;5053402;28;20064;-71
2020/12/24 01:26:16;;;;;;;4.72;2.92;;;11.60;67.90;;;;;;5053271;28;20048;-72
2020/12/24 01:28:42;;;;;;;3.85;2.95;;;11.70;67.80;;;;;;5053407;28;20025;-71
2020/12/24 01:31:08;;;;;;;5.75;2.72;;;11.70;67.70;;;;;;5053370;28;20025;-71
2020/12/24 01:33:33;;;;;;;4.50;2.78;;;11.70;67.60;;;;;;5053354;28;20025;-72
2020/12/24 01:35:59;;;;;;;3.97;2.80;;;11.70;67.60;;;;;;5053342;28;20087;-72
2020/12/24 01:38:25;;;;;;;4.85;2.72;;;11.70;67.70;;;;;;5053648;28;20021;-71
2020/12/24 01:41:01;;;;;;;7.13;3.45;;;11.70;67.70;;;;;;5053187;28;20029;-71
2020/12/24 01:43:27;;;;;;;3.17;2.70;;;11.70;67.60;;;;;;5053156;28;20025;-72
2020/12/24 01:45:57;;;;;;;3.53;2.85;;;11.70;67.50;;;;;;5052027;28;20067;-72
2020/12/24 01:48:24;;;;;;;4.07;2.45;;;11.70;67.50;;;;;;5053264;28;20013;-72
2020/12/24 01:50:50;;;;;;;3.60;2.67;;;11.70;67.50;;;;;;5053205;28;20147;-72
2020/12/24 01:53:22;;;;;;;8.55;4.80;;;11.70;67.60;;;;;;5053189;28;20028;-71
2020/12/24 01:55:49;;;;;;;13.95;6.80;;;11.70;67.70;;;;;;5053716;28;20082;-72
2020/12/24 01:58:16;;;;;;;10.23;5.75;;;11.70;67.70;;;;;;5053117;28;20040;-71
2020/12/24 02:00:48;;;;;;;7.40;4.57;;;11.70;67.80;;;;;;5051885;28;20025;-71
2020/12/24 02:03:15;;;;;;;6.53;3.63;;;11.70;67.80;;;;;;5053649;28;20028;-71
2020/12/24 02:05:41;;;;;;;7.03;3.97;;;11.80;67.80;;;;;;5053050;28;20025;-71
2020/12/24 02:08:07;;;;;;;4.03;3.03;;;11.80;67.70;;;;;;5053042;28;20459;-71
2020/12/24 02:10:33;;;;;;;5.85;3.95;;;11.80;67.70;;;;;;5053072;28;20025;-71
2020/12/24 02:12:59;;;;;;;5.90;4.07;;;11.80;67.60;;;;;;5051771;28;20031;-71
2020/12/24 02:15:24;;;;;;;5.22;3.85;;;11.80;67.30;;;;;;5053030;28;20060;-71
2020/12/24 02:17:50;;;;;;;4.50;3.90;;;11.80;67.20;;;;;;5051744;28;20025;-71
2020/12/24 02:20:16;;;;;;;10.77;6.32;;;11.80;67.10;;;;;;5053164;28;20056;-73
2020/12/24 02:22:42;;;;;;;9.07;5.57;;;11.80;67.10;;;;;;5053063;28;20025;-72
2020/12/24 02:25:08;;;;;;;19.05;9.38;;;11.80;67.20;;;;;;5053010;28;20060;-71
2020/12/24 02:27:33;;;;;;;19.00;8.93;;;11.80;67.30;;;;;;5056517;28;20032;-72
2020/12/24 02:30:01;;;;;;;14.77;7.40;;;11.80;67.30;;;;;;5056649;28;20486;-71
2020/12/24 02:32:29;;;;;;;10.18;5.60;;;11.80;67.30;;;;;;5056605;28;20013;-71
2020/12/24 02:34:55;;;;;;;7.00;4.45;;;11.90;67.40;;;;;;5055288;28;20031;-71
2020/12/24 02:37:22;;;;;;;6.78;4.32;;;11.90;67.40;;;;;;5057054;28;20028;-71
2020/12/24 02:39:49;;;;;;;7.45;4.43;;;11.90;67.30;;;;;;5055139;28;20110;-72
2020/12/24 02:42:16;;;;;;;6.55;3.55;;;11.90;67.20;;;;;;5056667;28;20359;-71
2020/12/24 02:44:42;;;;;;;4.43;3.22;;;11.90;67.10;;;;;;5056338;28;20414;-71
2020/12/24 02:47:08;;;;;;;4.40;3.40;;;11.90;67.00;;;;;;5056375;28;20029;-71
2020/12/24 02:49:34;;;;;;;5.03;3.40;;;11.90;67.00;;;;;;5056973;28;20021;-71
2020/12/24 02:52:00;;;;;;;3.50;2.88;;;11.90;66.90;;;;;;5047434;28;20028;-71
2020/12/24 02:54:25;;;;;;;4.80;3.17;;;11.90;67.00;;;;;;5069022;28;20067;-71
2020/12/24 02:56:51;;;;;;;3.70;3.10;;;12.00;67.20;;;;;;5055568;28;20483;-72
2020/12/24 02:59:17;;;;;;;4.35;3.47;;;12.00;67.20;;;;;;5054815;28;20033;-72
2020/12/24 03:01:44;;;;;;;5.40;3.85;;;12.00;67.20;;;;;;5056333;28;20040;-71
2020/12/24 03:04:11;;;;;;;5.97;3.70;;;12.00;67.10;;;;;;5056144;28;20028;-72
2020/12/24 03:06:37;;;;;;;3.97;3.40;;;12.00;66.90;;;;;;5075027;28;20494;-71
2020/12/24 03:09:05;;;;;;;6.97;3.80;;;12.00;66.90;;;;;;5076497;28;20046;-71
2020/12/24 03:11:31;;;;;;;5.65;4.18;;;12.00;67.00;;;;;;5075941;28;20020;-71
2020/12/24 03:13:56;;;;;;;5.13;3.53;;;12.00;66.80;;;;;;5075884;28;20031;-72
2020/12/24 03:16:22;;;;;;;6.63;4.15;;;12.00;67.00;;;;;;5058200;28;20025;-71
2020/12/24 03:18:48;;;;;;;6.53;4.40;;;12.00;67.50;;;;;;5055741;28;20040;-71
2020/12/24 03:21:13;;;;;;;6.22;4.70;;;12.00;68.10;;;;;;5073606;28;20024;-72
2020/12/24 03:23:39;;;;;;;5.82;4.00;;;12.00;68.40;;;;;;5075848;28;20056;-72
2020/12/24 03:26:05;;;;;;;8.43;4.95;;;12.10;68.50;;;;;;5060640;28;20048;-72
2020/12/24 03:28:30;;;;;;;9.20;4.63;;;12.10;68.60;;;;;;5055836;28;20017;-72
2020/12/24 03:30:56;;;;;;;8.18;4.50;;;12.10;68.50;;;;;;5055752;28;20390;-72
2020/12/24 03:33:22;;;;;;;8.02;4.60;;;12.20;68.60;;;;;;5055466;28;20025;-72
2020/12/24 03:35:48;;;;;;;11.50;4.95;;;12.20;68.40;;;;;;5055542;28;20029;-71
2020/12/24 03:38:14;;;;;;;7.57;5.05;;;12.20;68.30;;;;;;5054610;28;20075;-72
2020/12/24 03:40:40;;;;;;;6.20;4.70;;;12.20;68.30;;;;;;5055326;28;20056;-72
2020/12/24 03:43:05;;;;;;;8.68;4.22;;;12.20;68.30;;;;;;5055169;28;20032;-72
2020/12/24 03:45:31;;;;;;;6.70;4.65;;;12.30;68.30;;;;;;5055385;28;20017;-71
2020/12/24 03:47:57;;;;;;;8.60;4.90;;;12.30;68.30;;;;;;5055129;28;20029;-72
2020/12/24 03:50:23;;;;;;;7.10;4.78;;;12.30;68.30;;;;;;5056233;28;20352;-72
2020/12/24 03:52:48;;;;;;;8.13;4.18;;;12.40;68.30;;;;;;5075096;28;20028;-72
2020/12/24 03:55:14;;;;;;;5.82;4.03;;;12.40;68.10;;;;;;5064964;28;20019;-71
2020/12/24 03:57:40;;;;;;;5.63;4.07;;;12.40;68.00;;;;;;5054950;28;20092;-71
2020/12/24 04:00:06;;;;;;;4.95;3.80;;;12.40;67.60;;;;;;5053694;28;20385;-72
2020/12/24 04:02:31;;;;;;;10.98;4.50;;;12.40;67.10;;;;;;5045837;28;20026;-71
2020/12/24 04:04:57;;;;;;;6.18;4.05;;;12.40;67.00;;;;;;5034941;28;20058;-72
2020/12/24 04:07:25;;;;;;;7.95;4.47;;;12.40;67.00;;;;;;5034870;28;20052;-72
2020/12/24 04:09:52;;;;;;;5.75;4.10;;;12.40;67.20;;;;;;5034805;28;20018;-72
2020/12/24 04:12:18;;;;;;;5.95;4.28;;;12.30;67.20;;;;;;5045935;28;20468;-71
2020/12/24 04:14:44;;;;;;;5.70;3.80;;;12.40;67.20;;;;;;5055215;28;20029;-71
2020/12/24 04:17:10;;;;;;;6.45;4.28;;;12.30;67.00;;;;;;5054519;28;20105;-71
2020/12/24 04:19:36;;;;;;;6.95;4.40;;;12.30;67.20;;;;;;5054847;28;20108;-71
2020/12/24 04:22:01;;;;;;;8.02;4.75;;;12.30;67.50;;;;;;5054859;28;20025;-72
2020/12/24 04:24:27;;;;;;;8.43;4.22;;;12.30;68.70;;;;;;5054240;28;20113;-72
2020/12/24 04:26:56;;;;;;;6.43;4.07;;;12.30;67.90;;;;;;5053173;28;20032;-71
2020/12/24 04:29:22;;;;;;;7.97;4.57;;;12.30;67.80;;;;;;5054491;28;20086;-72
2020/12/24 04:31:48;;;;;;;9.15;5.13;;;12.30;67.70;;;;;;5054477;28;20074;-72
2020/12/24 04:34:17;;;;;;;7.50;4.90;;;12.30;67.90;;;;;;5054322;28;20599;-72
2020/12/24 04:36:43;;;;;;;6.65;4.22;;;12.40;68.00;;;;;;5054097;28;20035;-71
2020/12/24 04:39:08;;;;;;;8.55;5.05;;;12.40;68.00;;;;;;5054297;28;20029;-71
2020/12/24 04:41:35;;;;;;;7.25;4.88;;;12.40;68.20;;;;;;5054137;28;20036;-72
2020/12/24 04:44:01;;;;;;;7.95;4.95;;;12.40;68.50;;;;;;5053990;28;20389;-72
2020/12/24 04:46:28;;;;;;;10.50;4.60;;;12.40;68.60;;;;;;5053979;28;20028;-72
2020/12/24 04:48:57;;;;;;;8.68;4.72;;;12.40;68.40;;;;;;5053685;28;20083;-71
2020/12/24 04:51:23;;;;;;;8.32;4.90;;;12.50;68.20;;;;;;5053729;28;20024;-72
2020/12/24 04:53:50;;;;;;;9.55;5.57;;;12.40;68.20;;;;;;5054074;28;20025;-71
2020/12/24 04:56:15;;;;;;;6.88;4.20;;;12.50;68.30;;;;;;5053773;28;20075;-71
2020/12/24 04:58:43;;;;;;;7.25;3.78;;;12.50;68.10;;;;;;5054174;28;20033;-72
2020/12/24 05:01:16;;;;;;;6.65;4.30;;;12.40;67.80;;;;;;5054265;28;20025;-71
2020/12/24 05:03:42;;;;;;;6.70;4.68;;;12.50;67.70;;;;;;5053726;28;20036;-71
2020/12/24 05:06:15;;;;;;;7.38;4.25;;;12.40;67.70;;;;;;5053565;28;20108;-72
2020/12/24 05:08:49;;;;;;;6.35;4.65;;;12.40;67.80;;;;;;5053718;28;20017;-72
2020/12/24 05:11:14;;;;;;;4.95;3.70;;;12.40;67.80;;;;;;5053212;28;20021;-71
2020/12/24 05:13:40;;;;;;;4.82;3.55;;;12.40;67.80;;;;;;5050267;28;20039;-71
2020/12/24 05:16:15;;;;;;;6.32;3.95;;;12.40;67.50;;;;;;5053532;28;20029;-71
2020/12/24 05:18:42;;;;;;;6.15;4.10;;;12.40;67.40;;;;;;5052248;28;20029;-71
2020/12/24 05:21:08;;;;;;;7.93;4.70;;;12.40;67.50;;;;;;5052387;28;20492;-71
2020/12/24 05:23:34;;;;;;;7.60;4.20;;;12.40;67.50;;;;;;5053288;28;20047;-72
2020/12/24 05:25:59;;;;;;;6.75;3.70;;;12.40;67.50;;;;;;5052136;28;20520;-71
2020/12/24 05:28:27;;;;;;;6.25;4.47;;;12.40;67.30;;;;;;5052814;28;20021;-72
2020/12/24 05:30:54;;;;;;;6.25;3.97;;;12.40;67.20;;;;;;5052208;28;20040;-72
2020/12/24 05:33:31;;;;;;;5.00;3.30;;;12.30;67.20;;;;;;5053361;28;20027;-71
2020/12/24 05:36:16;;;;;;;14.02;5.88;;;12.30;67.20;;;;;;5053438;28;20021;-72
2020/12/24 05:38:43;;;;;;;7.95;4.60;;;12.30;67.30;;;;;;5053609;28;20025;-71
2020/12/24 05:41:47;;;;;;;18.15;5.10;;;12.30;67.40;;;;;;5053455;28;20111;-72
2020/12/24 05:44:13;;;;;;;6.57;3.90;;;12.30;67.70;;;;;;5011436;28;20107;-71
2020/12/24 05:46:45;;;;;;;7.63;4.63;;;12.30;67.80;;;;;;5011478;28;20551;-71
2020/12/24 05:49:18;;;;;;;4.72;3.20;;;12.30;67.90;;;;;;5011684;28;20034;-71
2020/12/24 05:51:48;;;;;;;5.77;4.10;;;12.30;68.00;;;;;;5011500;28;20129;-71
2020/12/24 05:54:15;;;;;;;4.13;3.00;;;12.30;68.00;;;;;;5011521;28;20555;-72
2020/12/24 05:56:43;;;;;;;5.95;3.50;;;12.40;67.90;;;;;;4995229;28;20061;-72
2020/12/24 05:59:16;;;;;;;5.88;3.97;;;12.40;67.70;;;;;;5010906;28;20644;-71
2020/12/24 06:01:59;;;;;;;5.50;3.47;;;12.40;67.60;;;;;;5014173;28;20042;-72
2020/12/24 06:04:44;;;;;;;6.07;3.88;;;12.30;67.20;;;;;;4998591;28;20049;-71
2020/12/24 06:07:13;;;;;;;4.70;3.10;;;12.40;67.30;;;;;;4998903;28;20148;-71
2020/12/24 06:09:40;;;;;;;4.75;3.50;;;12.30;67.30;;;;;;5015516;28;20062;-71
2020/12/24 06:12:25;;;;;;;4.95;3.25;;;12.30;67.30;;;;;;5015474;28;20109;-71
2020/12/24 06:14:59;;;;;;;5.20;3.63;;;12.30;67.30;;;;;;5023582;28;20094;-71
2020/12/24 06:17:27;;;;;;;6.13;4.25;;;12.30;67.50;;;;;;5055580;28;20075;-71
2020/12/24 06:19:53;;;;;;;7.47;3.92;;;12.30;67.60;;;;;;5056472;28;20425;-71
2020/12/24 06:22:20;;;;;;;5.47;3.83;;;12.30;67.60;;;;;;5057076;28;20031;-71
2020/12/24 06:24:54;;;;;;;7.78;3.90;;;12.30;67.70;;;;;;5056461;28;20037;-71
2020/12/24 06:27:41;;;;;;;5.97;4.28;;;12.30;67.70;;;;;;5056760;28;20462;-71
2020/12/24 06:30:12;;;;;;;7.20;4.13;;;12.30;67.80;;;;;;5056634;28;20029;-72
2020/12/24 06:32:46;;;;;;;9.60;3.83;;;12.30;67.80;;;;;;5055364;28;20025;-71
2020/12/24 06:35:32;;;;;;;7.28;3.92;;;12.30;67.70;;;;;;5055620;28;20021;-71
2020/12/24 06:37:58;;;;;;;8.35;5.15;;;12.30;67.70;;;;;;5056798;28;20086;-72
2020/12/24 06:40:38;;;;;;;9.95;5.65;;;12.30;67.70;;;;;;5055856;28;20017;-72
2020/12/24 06:43:08;;;;;;;9.23;5.53;;;12.30;67.80;;;;;;5056344;28;20032;-71
2020/12/24 06:45:41;;;;;;;9.55;5.40;;;12.30;67.80;;;;;;5056416;28;20017;-71
2020/12/24 06:48:12;;;;;;;11.18;5.18;;;12.30;67.90;;;;;;5056325;28;20087;-71
2020/12/24 06:50:39;;;;;;;8.77;5.25;;;12.30;68.00;;;;;;5056159;28;20100;-71
2020/12/24 06:53:21;;;;;;;10.90;5.30;;;12.30;68.50;;;;;;5056211;28;20489;-71
2020/12/24 06:56:19;;;;;;;22.58;11.15;;;12.30;68.30;;;;;;5056261;28;20024;-72
2020/12/24 06:58:50;;;;;;;14.57;8.23;;;12.30;68.20;;;;;;5055986;28;20384;-71
2020/12/24 07:01:22;;;;;;;8.27;5.25;;;12.30;68.20;;;;;;5055328;28;20021;-72
2020/12/24 07:03:49;;;;;;;8.57;5.25;;;12.30;68.30;;;;;;5056290;28;20048;-72
2020/12/24 07:06:45;;;;;;;7.03;4.53;;;12.40;68.40;;;;;;5054724;28;20021;-72
2020/12/24 07:09:32;;;;;;;6.60;4.78;;;12.40;68.30;;;;;;5055757;28;20052;-71
2020/12/24 07:11:58;;;;;;;7.95;5.05;;;12.40;68.20;;;;;;5055234;28;20021;-72
2020/12/24 07:14:32;;;;;;;9.18;5.07;;;12.40;68.30;;;;;;5055460;28;20021;-71
2020/12/24 07:17:17;;;;;;;8.80;3.97;;;12.40;68.40;;;;;;5055825;28;20033;-72
2020/12/24 07:19:45;;;;;;;7.32;4.40;;;12.40;68.10;;;;;;5054488;28;20031;-71
2020/12/24 07:22:16;;;;;;;8.20;4.18;;;12.40;68.00;;;;;;5059683;28;20036;-71
2020/12/24 07:24:56;;;;;;;8.82;3.92;;;12.40;68.00;;;;;;5075366;28;20457;-71
2020/12/24 07:27:22;;;;;;;6.07;3.38;;;12.40;67.80;;;;;;5075627;28;20091;-71
2020/12/24 07:29:48;;;;;;;5.22;3.45;;;12.40;67.70;;;;;;5074214;28;20097;-71
2020/12/24 07:32:14;;;;;;;5.70;3.40;;;12.40;67.70;;;;;;5072987;28;20029;-72
2020/12/24 07:34:40;;;;;;;6.32;4.07;;;12.30;67.70;;;;;;5054380;28;20367;-71
2020/12/24 07:37:08;;;;;;;9.57;4.70;;;12.30;67.70;;;;;;5055411;28;20024;-72
2020/12/24 07:39:34;;;;;;;5.82;4.00;;;12.30;67.70;;;;;;5055613;28;20493;-71
2020/12/24 07:42:00;;;;;;;5.80;3.70;;;12.30;67.80;;;;;;5055203;28;20033;-71
2020/12/24 07:44:26;;;;;;;7.60;4.38;;;12.30;67.90;;;;;;5055215;28;20028;-72
2020/12/24 07:46:59;;;;;;;7.22;3.55;;;12.30;67.90;;;;;;5055242;28;20100;-72
2020/12/24 07:49:25;;;;;;;7.00;4.72;;;12.30;68.10;;;;;;5055442;28;20021;-71
2020/12/24 07:51:59;;;;;;;6.95;4.75;;;12.40;68.10;;;;;;5055759;28;20139;-72
2020/12/24 07:54:29;;;;;;;8.98;4.15;;;12.40;68.20;;;;;;5055185;28;20100;-71
2020/12/24 07:56:55;;;;;;;8.40;3.97;;;12.40;68.10;;;;;;5044720;28;20034;-72
2020/12/24 07:59:22;;;;;;;6.13;4.60;;;12.40;68.20;;;;;;5074900;28;20035;-72
2020/12/24 08:01:49;;;;;;;5.25;3.70;;;12.40;68.40;;;;;;5074891;28;20032;-71
2020/12/24 08:04:15;;;;;;;5.80;3.25;;;12.50;68.60;;;;;;5074723;28;20032;-72
2020/12/24 08:06:41;;;;;;;5.07;3.50;;;12.50;68.60;;;;;;5074782;28;20470;-72
2020/12/24 08:09:12;;;;;;;5.22;3.25;;;12.50;68.60;;;;;;5074719;28;20090;-72
2020/12/24 08:11:39;;;;;;;5.60;3.38;;;12.60;68.70;;;;;;5074700;28;20024;-72
2020/12/24 08:14:05;;;;;;;8.93;4.85;;;12.60;68.60;;;;;;5073414;28;20082;-72
2020/12/24 08:16:36;;;;;;;4.82;3.40;;;12.60;68.60;;;;;;5074567;28;20028;-72
2020/12/24 08:19:12;;;;;;;3.55;2.65;;;12.70;68.60;;;;;;5075156;28;20029;-72
2020/12/24 08:22:23;;;;;;;3.85;2.88;;;12.70;68.50;;;;;;5072378;28;20090;-72
2020/12/24 08:24:51;;;;;;;7.07;2.83;;;12.70;68.40;;;;;;5012135;28;20045;-72
2020/12/24 08:27:18;;;;;;;3.70;2.78;;;12.80;68.40;;;;;;5013046;28;20501;-72
2020/12/24 08:29:45;;;;;;;3.40;2.53;;;12.80;68.40;;;;;;4996363;28;20034;-72
2020/12/24 08:32:11;;;;;;;7.18;3.55;;;12.80;68.30;;;;;;5012423;28;20029;-72
2020/12/24 08:34:37;;;;;;;7.68;4.13;;;12.90;68.40;;;;;;5012548;28;20488;-72
2020/12/24 08:37:03;;;;;;;8.68;4.15;;;12.90;68.40;;;;;;5012693;28;20064;-72
2020/12/24 08:39:30;;;;;;;19.35;4.57;;;12.90;68.40;;;;;;5012376;28;20029;-72
2020/12/24 08:41:57;;;;;;;5.32;3.20;;;13.00;68.40;;;;;;5012635;28;20559;-72
2020/12/24 08:44:24;;;;;;;6.72;3.17;;;13.00;67.90;;;;;;5012351;28;20037;-72
2020/12/24 08:47:02;;;;;;;4.30;3.17;;;13.00;67.60;;;;;;5012364;28;20075;-72
2020/12/24 08:49:28;;;;;;;3.13;2.28;;;12.90;67.30;;;;;;5012463;28;20053;-72
2020/12/24 08:52:18;;;;;;;3.85;2.58;;;13.00;67.60;;;;;;5012033;28;20026;-72
2020/12/24 08:55:00;;;;;;;6.00;4.03;;;13.00;67.50;;;;;;5018880;28;20043;-72
2020/12/24 08:57:26;;;;;;;5.40;2.78;;;13.00;67.50;;;;;;5054670;28;20029;-72
2020/12/24 08:59:56;;;;;;;8.40;3.58;;;13.00;67.20;;;;;;5054017;28;20033;-72
2020/12/24 09:02:33;;;;;;;4.50;3.13;;;13.00;67.10;;;;;;5053705;28;20036;-72
2020/12/24 09:05:00;;;;;;;6.47;4.03;;;13.00;67.00;;;;;;5053648;28;20474;-72
2020/12/24 09:07:28;;;;;;;4.10;2.63;;;13.00;66.80;;;;;;5053688;28;20078;-72
2020/12/24 09:10:26;;;;;;;6.70;4.82;;;13.00;66.60;;;;;;5053614;28;20052;-72
2020/12/24 09:12:57;;;;;;;13.90;4.68;;;13.00;66.60;;;;;;5053012;28;20028;-72
2020/12/24 09:15:28;;;;;;;4.57;2.65;;;13.00;66.70;;;;;;5070386;28;20112;-72
2020/12/24 09:17:55;;;;;;;6.10;3.28;;;13.10;66.90;;;;;;5073570;28;20021;-72
2020/12/24 09:20:26;;;;;;;3.65;2.22;;;13.00;66.40;;;;;;5073749;28;20096;-72
2020/12/24 09:23:00;;;;;;;3.53;2.13;;;13.00;66.30;;;;;;5072178;28;20074;-72
2020/12/24 09:25:31;;;;;;;4.40;1.80;;;13.00;66.30;;;;;;5073396;28;20049;-72
2020/12/24 09:27:57;;;;;;;5.90;2.25;;;13.10;66.40;;;;;;5066315;28;20020;-72
2020/12/24 09:30:23;;;;;;;2.97;1.30;;;13.00;65.90;;;;;;5053647;28;20445;-72
2020/12/24 09:32:57;;;;;;;1.88;1.17;;;13.00;65.90;;;;;;5053402;28;20059;-72
2020/12/24 09:35:25;;;;;;;4.75;2.40;;;13.10;66.20;;;;;;5053181;28;20029;-72
2020/12/24 09:37:51;;;;;;;4.57;1.88;;;13.10;66.50;;;;;;5053753;28;20067;-72
2020/12/24 09:40:17;;;;;;;6.78;3.13;;;13.10;66.60;;;;;;5054147;28;20100;-72
2020/12/24 09:42:43;;;;;;;2.92;1.30;;;13.10;65.90;;;;;;5045200;28;20087;-72
2020/12/24 09:45:09;;;;;;;1.02;0.80;;;13.10;65.50;;;;;;5053327;28;20025;-72
2020/12/24 09:47:35;;;;;;;2.08;0.80;;;13.10;65.40;;;;;;5040288;28;20066;-72
2020/12/24 09:50:01;;;;;;;2.30;0.63;;;13.10;65.40;;;;;;5053698;28;20021;-72
2020/12/24 09:52:27;;;;;;;1.92;1.10;;;13.10;65.50;;;;;;5053118;28;20474;-72
2020/12/24 09:54:53;;;;;;;2.08;0.77;;;13.10;65.70;;;;;;5050335;28;20052;-72
2020/12/24 09:57:18;;;;;;;1.13;0.68;;;13.10;65.00;;;;;;5044244;28;20056;-72
2020/12/24 09:59:44;;;;;;;1.55;0.80;;;13.00;64.50;;;;;;5051383;28;20025;-72
2020/12/24 10:02:10;;;;;;;1.77;0.70;;;13.00;64.00;;;;;;5053096;28;20021;-72
2020/12/24 10:04:35;;;;;;;1.13;0.68;;;13.00;64.00;;;;;;5048975;28;20489;-72
2020/12/24 10:07:01;;;;;;;0.82;0.63;;;12.90;64.30;;;;;;5037566;28;20072;-72
2020/12/24 10:09:27;;;;;;;0.98;0.70;;;12.90;64.00;;;;;;5033879;28;20387;-72
2020/12/24 10:11:53;;;;;;;5.07;1.20;;;12.90;63.90;;;;;;5053024;28;20036;-72
2020/12/24 10:14:20;;;;;;;1.33;0.70;;;12.90;63.50;;;;;;5053275;28;20029;-72
2020/12/24 10:16:46;;;;;;;1.23;0.70;;;12.80;63.10;;;;;;5052874;28;20021;-72
2020/12/24 10:19:11;;;;;;;2.33;0.70;;;12.70;63.10;;;;;;5052882;28;20032;-72
2020/12/24 10:21:43;;;;;;;1.67;0.75;;;12.70;63.30;;;;;;5048395;28;20082;-72
2020/12/24 10:24:09;;;;;;;2.05;0.60;;;12.60;62.90;;;;;;5051395;28;20531;-73
2020/12/24 10:26:35;;;;;;;3.72;0.80;;;12.60;62.70;;;;;;5052760;28;20029;-72
2020/12/24 10:29:00;;;;;;;3.70;0.90;;;12.60;63.10;;;;;;5052683;28;20027;-72
2020/12/24 10:31:26;;;;;;;2.22;0.90;;;12.50;63.60;;;;;;5055413;28;20024;-72
2020/12/24 10:33:52;;;;;;;2.58;0.77;;;12.50;63.50;;;;;;5051879;28;20028;-72
2020/12/24 10:36:21;;;;;;;2.08;0.60;;;12.40;63.50;;;;;;5040064;28;20539;-72
2020/12/24 10:38:48;;;;;;;1.52;0.60;;;12.30;62.80;;;;;;5052675;28;20074;-72
2020/12/24 10:41:14;;;;;;;2.05;0.75;;;12.20;63.50;;;;;;5045055;28;20498;-71
2020/12/24 10:43:40;;;;;;;2.38;0.50;;;12.20;62.80;;;;;;5032721;28;20030;-71
2020/12/24 10:46:05;;;;;;;1.70;0.60;;;12.10;62.50;;;;;;5032771;28;20486;-72
2020/12/24 10:48:31;;;;;;;3.88;0.68;;;12.10;62.40;;;;;;5034879;28;20025;-71
2020/12/24 10:50:57;;;;;;;3.20;0.82;;;12.10;62.50;;;;;;5051535;28;20040;-71
2020/12/24 10:53:22;;;;;;;2.05;0.68;;;12.10;63.50;;;;;;5056184;28;20029;-71
2020/12/24 10:55:51;;;;;;;2.90;0.57;;;12.20;63.60;;;;;;5052473;28;20031;-71
2020/12/24 10:58:17;;;;;;;8.13;1.85;;;12.20;63.80;;;;;;5047168;28;20021;-71
2020/12/24 11:00:43;;;;;;;2.88;0.95;;;12.30;63.90;;;;;;5048781;28;20029;-71
2020/12/24 11:03:09;;;;;;;5.93;1.40;;;12.30;64.00;;;;;;5055775;28;20032;-72
2020/12/24 11:05:37;;;;;;;1.52;0.80;;;12.40;64.30;;;;;;5057430;28;20513;-71
2020/12/24 11:08:03;;;;;;;5.32;1.58;;;12.40;64.50;;;;;;5058562;28;20547;-71
2020/12/24 11:10:29;;;;;;;3.70;0.82;;;12.40;64.40;;;;;;5075766;28;20020;-71
2020/12/24 11:12:56;;;;;;;2.00;0.70;;;12.40;64.30;;;;;;5055569;28;20021;-71
2020/12/24 11:15:22;;;;;;;3.05;1.00;;;12.50;64.20;;;;;;5055684;28;20043;-72
2020/12/24 11:17:47;;;;;;;2.75;0.60;;;12.50;64.30;;;;;;5036910;28;20034;-72
2020/12/24 11:20:13;;;;;;;3.20;1.30;;;12.50;63.80;;;;;;5048370;28;20032;-71
2020/12/24 11:22:39;;;;;;;3.25;1.50;;;12.50;63.60;;;;;;5055510;28;20025;-72
2020/12/24 11:25:05;;;;;;;1.63;0.93;;;12.60;63.70;;;;;;5053988;28;20041;-72
2020/12/24 11:27:31;;;;;;;2.45;0.63;;;12.60;63.70;;;;;;5050901;28;20053;-72
2020/12/24 11:29:57;;;;;;;2.28;0.75;;;12.60;63.00;;;;;;5054681;28;20079;-71
2020/12/24 11:32:22;;;;;;;2.33;0.95;;;12.70;62.50;;;;;;5053693;28;20048;-71
2020/12/24 11:34:48;;;;;;;4.45;1.33;;;12.70;62.30;;;;;;5055119;28;20056;-71
2020/12/24 11:37:14;;;;;;;1.67;1.02;;;12.60;62.30;;;;;;5055370;28;20094;-71
2020/12/24 11:39:40;;;;;;;2.42;0.47;;;12.60;61.70;;;;;;5049830;28;20058;-71
2020/12/24 11:42:08;;;;;;;2.10;0.60;;;12.60;61.50;;;;;;5055324;28;20474;-72
2020/12/24 11:44:33;;;;;;;4.60;1.00;;;12.60;60.00;;;;;;5055077;28;20027;-72
2020/12/24 11:46:59;;;;;;;1.55;0.70;;;12.60;61.30;;;;;;5053541;28;20029;-72
2020/12/24 11:49:26;;;;;;;4.53;2.08;;;12.60;61.10;;;;;;5043942;28;20024;-72
2020/12/24 11:51:52;;;;;;;5.72;1.08;;;12.60;61.50;;;;;;5055088;28;20017;-72
2020/12/24 11:54:18;;;;;;;4.50;1.40;;;12.60;60.50;;;;;;5054885;28;20047;-71
2020/12/24 11:56:43;;;;;;;2.38;1.27;;;12.70;61.10;;;;;;5054996;28;20100;-72
2020/12/24 11:59:09;;;;;;;5.70;1.92;;;12.70;61.40;;;;;;5069914;28;20113;-72
2020/12/24 12:01:35;;;;;;;4.45;2.50;;;12.70;61.00;;;;;;5053626;28;20090;-72
2020/12/24 12:04:01;;;;;;;3.28;1.20;;;12.70;60.90;;;;;;5054892;28;20021;-72
2020/12/24 12:06:26;;;;;;;5.15;1.58;;;12.70;60.50;;;;;;5053558;28;20092;-72
2020/12/24 12:08:52;;;;;;;2.75;1.33;;;12.80;60.60;;;;;;5041080;28;20049;-72
2020/12/24 12:11:19;;;;;;;1.38;0.93;;;12.80;59.70;;;;;;5034864;28;20100;-72
2020/12/24 12:13:47;;;;;;;7.78;0.77;;;12.80;59.10;;;;;;5034840;28;20383;-72
2020/12/24 12:16:13;;;;;;;2.92;1.33;;;12.80;58.90;;;;;;5033416;28;20040;-72
2020/12/24 12:18:39;;;;;;;2.05;0.50;;;12.80;59.20;;;;;;5034686;28;20021;-71
2020/12/24 12:21:05;;;;;;;2.63;0.40;;;12.90;59.50;;;;;;5034521;28;20076;-71
2020/12/24 12:23:31;;;;;;;2.55;0.70;;;12.80;59.10;;;;;;5041969;28;20547;-71
2020/12/24 12:25:57;;;;;;;1.70;0.70;;;12.80;58.80;;;;;;5052904;28;20041;-72
2020/12/24 12:28:23;;;;;;;1.10;0.70;;;12.80;58.00;;;;;;5053593;28;20428;-72
2020/12/24 12:30:48;;;;;;;1.10;0.68;;;12.70;57.80;;;;;;5057081;28;20052;-71
2020/12/24 12:33:14;;;;;;;1.80;0.63;;;12.70;58.00;;;;;;5059822;28;20017;-71
2020/12/24 12:35:40;;;;;;;1.23;0.65;;;12.60;57.90;;;;;;5056444;28;20029;-71
2020/12/24 12:38:06;;;;;;;2.50;0.60;;;12.60;58.50;;;;;;5059059;28;20071;-71
2020/12/24 12:40:32;;;;;;;1.95;0.50;;;12.60;58.90;;;;;;5074688;28;20031;-72
2020/12/24 12:42:57;;;;;;;0.82;0.40;;;12.50;58.90;;;;;;5074145;28;20115;-72
2020/12/24 12:45:23;;;;;;;1.05;0.40;;;12.50;59.00;;;;;;5074084;28;20099;-71
2020/12/24 12:47:49;;;;;;;10.63;0.70;;;12.50;58.70;;;;;;5074061;28;20020;-71
2020/12/24 12:50:15;;;;;;;2.63;0.70;;;12.40;59.10;;;;;;5074276;28;20066;-71